createdAt,value
2023-02-06T00:00:05.394Z,66.00
2023-02-06T00:02:31.890Z,65.80
2023-02-06T00:04:58.364Z,65.80
2023-02-06T00:07:24.831Z,65.90
2023-02-06T00:09:54.169Z,65.90
2023-02-06T00:12:20.618Z,65.90
2023-02-06T00:14:47.094Z,65.80
2023-02-06T00:17:13.601Z,65.70
2023-02-06T00:19:40.073Z,65.70
2023-02-06T00:22:06.576Z,65.60
2023-02-06T00:24:33.043Z,65.60
2023-02-06T00:26:59.522Z,65.70
2023-02-06T00:29:26.004Z,65.60
2023-02-06T00:31:52.464Z,65.60
2023-02-06T00:34:18.939Z,65.70
2023-02-06T00:36:45.429Z,65.50
2023-02-06T00:39:11.915Z,65.50
2023-02-06T00:41:38.400Z,65.60
2023-02-06T00:44:04.883Z,65.50
2023-02-06T00:46:31.460Z,65.40
2023-02-06T00:48:57.947Z,65.40
2023-02-06T00:51:24.442Z,65.40
2023-02-06T00:53:51.376Z,65.30
2023-02-06T00:56:17.882Z,65.30
2023-02-06T00:58:44.355Z,65.30
2023-02-06T01:01:10.840Z,65.30
2023-02-06T01:03:37.328Z,65.20
2023-02-06T01:06:03.833Z,65.30
2023-02-06T01:08:30.305Z,65.20
2023-02-06T01:10:56.794Z,65.20
2023-02-06T01:13:23.258Z,65.10
2023-02-06T01:15:51.206Z,65.00
2023-02-06T01:18:18.533Z,64.90
2023-02-06T01:20:45.018Z,64.90
2023-02-06T01:23:11.488Z,64.90
2023-02-06T01:25:38.065Z,64.90
2023-02-06T01:28:04.632Z,64.70
2023-02-06T01:30:31.149Z,64.80
2023-02-06T01:32:57.710Z,64.70
2023-02-06T01:35:24.192Z,64.80
2023-02-06T01:37:50.714Z,64.50
2023-02-06T01:40:17.206Z,64.60
2023-02-06T01:42:43.685Z,64.70
2023-02-06T01:45:10.165Z,64.60
2023-02-06T01:47:36.635Z,64.60
2023-02-06T01:50:03.104Z,64.70
2023-02-06T01:52:29.578Z,64.50
2023-02-06T01:54:56.050Z,64.70
2023-02-06T01:57:22.532Z,64.50
2023-02-06T01:59:48.960Z,64.40
2023-02-06T02:02:15.473Z,64.40
2023-02-06T02:04:42.028Z,64.40
2023-02-06T02:07:08.502Z,64.40
2023-02-06T02:09:34.988Z,65.10
2023-02-06T02:12:01.462Z,64.50
2023-02-06T02:14:27.944Z,64.20
2023-02-06T02:16:54.427Z,64.30
2023-02-06T02:19:20.921Z,64.30
2023-02-06T02:21:50.447Z,64.30
2023-02-06T02:24:16.919Z,64.10
2023-02-06T02:26:43.463Z,64.10
2023-02-06T02:29:09.940Z,64.00
2023-02-06T02:31:36.417Z,63.90
2023-02-06T02:34:04.026Z,64.00
2023-02-06T02:36:30.498Z,64.10
2023-02-06T02:38:56.985Z,64.20
2023-02-06T02:41:23.462Z,64.10
2023-02-06T02:43:49.947Z,64.00
2023-02-06T02:46:16.412Z,64.00
2023-02-06T02:48:42.891Z,64.00
2023-02-06T02:51:09.358Z,63.80
2023-02-06T02:53:35.832Z,63.80
2023-02-06T02:56:02.305Z,63.90
2023-02-06T02:58:28.807Z,63.80
2023-02-06T03:00:55.323Z,63.70
2023-02-06T03:03:21.835Z,63.70
2023-02-06T03:05:48.307Z,63.80
2023-02-06T03:08:14.802Z,63.80
2023-02-06T03:10:41.287Z,63.70
2023-02-06T03:13:07.777Z,63.80
2023-02-06T03:15:34.599Z,63.70
2023-02-06T03:18:01.247Z,63.60
2023-02-06T03:20:27.929Z,63.60
2023-02-06T03:22:56.764Z,63.50
2023-02-06T03:25:23.247Z,63.30
2023-02-06T03:27:49.737Z,63.50
2023-02-06T03:30:16.248Z,63.40
2023-02-06T03:32:42.717Z,63.50
2023-02-06T03:35:09.173Z,63.20
2023-02-06T03:37:35.670Z,63.30
2023-02-06T03:40:02.144Z,63.30
2023-02-06T03:42:28.603Z,63.20
2023-02-06T03:44:55.072Z,63.10
2023-02-06T03:47:21.556Z,63.10
2023-02-06T03:49:48.067Z,63.10
2023-02-06T03:52:14.545Z,63.10
2023-02-06T03:54:40.980Z,63.20
2023-02-06T03:57:07.445Z,63.20
2023-02-06T03:59:33.945Z,63.00
2023-02-06T04:02:00.453Z,63.00
2023-02-06T04:04:26.955Z,63.00
2023-02-06T04:06:53.435Z,63.00
2023-02-06T04:09:19.919Z,62.90
2023-02-06T04:11:46.371Z,62.90
2023-02-06T04:14:12.900Z,62.70
2023-02-06T04:16:39.427Z,62.80
2023-02-06T04:19:05.894Z,62.70
2023-02-06T04:21:32.367Z,62.70
2023-02-06T04:23:58.849Z,62.60
2023-02-06T04:26:25.324Z,62.70
2023-02-06T04:28:51.804Z,62.50
2023-02-06T04:31:18.386Z,62.60
2023-02-06T04:33:44.919Z,62.50
2023-02-06T04:36:11.418Z,62.50
2023-02-06T04:38:37.901Z,62.40
2023-02-06T04:41:04.384Z,62.40
2023-02-06T04:43:30.859Z,62.50
2023-02-06T04:45:57.362Z,62.50
2023-02-06T04:48:23.826Z,62.70
2023-02-06T04:50:50.306Z,62.40
2023-02-06T04:53:16.773Z,62.40
2023-02-06T04:55:43.234Z,62.40
2023-02-06T04:58:09.701Z,62.40
2023-02-06T05:00:37.971Z,62.40
2023-02-06T05:03:05.224Z,62.40
2023-02-06T05:05:31.706Z,62.20
2023-02-06T05:07:58.182Z,62.20
2023-02-06T05:10:24.651Z,62.00
2023-02-06T05:12:51.113Z,61.90
2023-02-06T05:15:17.619Z,62.00
2023-02-06T05:17:44.091Z,62.00
2023-02-06T05:20:10.555Z,62.10
2023-02-06T05:22:37.027Z,62.10
2023-02-06T05:25:03.492Z,62.10
2023-02-06T05:27:29.953Z,62.00
2023-02-06T05:29:56.452Z,61.80
2023-02-06T05:32:22.936Z,61.90
2023-02-06T05:34:49.409Z,61.80
2023-02-06T05:37:16.042Z,61.80
2023-02-06T05:39:42.526Z,61.80
2023-02-06T05:42:09.008Z,61.70
2023-02-06T05:44:35.482Z,61.80
2023-02-06T05:47:01.985Z,61.70
2023-02-06T05:49:28.468Z,61.70
2023-02-06T05:51:54.962Z,61.70
2023-02-06T05:54:21.462Z,61.60
2023-02-06T05:56:47.944Z,61.50
2023-02-06T05:59:14.414Z,61.60
2023-02-06T06:01:40.902Z,61.50
2023-02-06T06:04:07.402Z,61.60
2023-02-06T06:06:33.882Z,61.50
2023-02-06T06:09:00.359Z,61.40
2023-02-06T06:11:26.829Z,61.50
2023-02-06T06:13:53.312Z,61.40
2023-02-06T06:16:19.813Z,61.60
2023-02-06T06:18:46.298Z,61.50
2023-02-06T06:21:12.790Z,61.40
2023-02-06T06:23:39.250Z,61.40
2023-02-06T06:26:05.717Z,61.50
2023-02-06T06:28:32.182Z,61.50
2023-02-06T06:30:58.704Z,61.20
2023-02-06T06:33:25.174Z,61.20
2023-02-06T06:35:51.660Z,61.40
2023-02-06T06:38:18.135Z,61.40
2023-02-06T06:40:44.621Z,61.30
2023-02-06T06:43:11.110Z,61.40
2023-02-06T06:45:37.938Z,61.30
2023-02-06T06:48:04.756Z,61.40
2023-02-06T06:50:31.256Z,61.40
2023-02-06T06:52:57.730Z,61.10
2023-02-06T06:55:24.199Z,61.20
2023-02-06T06:57:50.685Z,61.20
2023-02-06T07:00:17.170Z,61.40
2023-02-06T07:02:43.689Z,61.30
2023-02-06T07:05:10.177Z,61.20
2023-02-06T07:07:36.719Z,61.30
2023-02-06T07:10:03.226Z,61.20
2023-02-06T07:12:29.705Z,61.40
2023-02-06T07:14:56.192Z,61.20
2023-02-06T07:17:22.669Z,61.20
2023-02-06T07:19:49.187Z,61.30
2023-02-06T07:22:15.655Z,61.20
2023-02-06T07:24:42.162Z,61.30
2023-02-06T07:27:08.639Z,61.40
2023-02-06T07:29:35.211Z,61.40
2023-02-06T07:32:01.707Z,61.40
2023-02-06T07:34:28.168Z,61.30
2023-02-06T07:36:54.651Z,61.40
2023-02-06T07:39:21.137Z,61.20
2023-02-06T07:41:47.642Z,61.20
2023-02-06T07:44:14.142Z,61.40
2023-02-06T07:46:40.573Z,61.40
2023-02-06T07:49:07.058Z,61.20
2023-02-06T07:51:33.541Z,61.30
2023-02-06T07:53:59.975Z,61.20
2023-02-06T07:56:26.460Z,61.20
2023-02-06T07:58:52.936Z,61.20
2023-02-06T08:01:19.424Z,61.40
2023-02-06T08:03:45.935Z,61.40
2023-02-06T08:06:12.422Z,61.50
2023-02-06T08:08:38.874Z,61.10
2023-02-06T08:11:05.382Z,61.30
2023-02-06T08:13:31.867Z,61.30
2023-02-06T08:15:58.346Z,61.30
2023-02-06T08:18:24.829Z,61.30
2023-02-06T08:20:51.307Z,61.40
2023-02-06T08:23:19.685Z,61.20
2023-02-06T08:25:47.253Z,61.30
2023-02-06T08:28:13.760Z,61.30
2023-02-06T08:30:40.334Z,61.20
2023-02-06T08:33:06.885Z,61.40
2023-02-06T08:35:33.396Z,61.60
2023-02-06T08:37:59.910Z,61.40
2023-02-06T08:40:26.401Z,61.30
2023-02-06T08:42:52.889Z,61.50
2023-02-06T08:45:19.373Z,61.30
2023-02-06T08:47:45.838Z,61.40
2023-02-06T08:50:12.318Z,61.40
2023-02-06T08:52:38.793Z,61.30
2023-02-06T08:55:05.300Z,61.50
2023-02-06T08:57:31.780Z,61.50
2023-02-06T08:59:58.266Z,61.40
2023-02-06T09:02:24.842Z,61.30
2023-02-06T09:04:51.360Z,61.40
2023-02-06T09:07:18.059Z,61.40
2023-02-06T09:09:44.537Z,61.40
2023-02-06T09:12:11.049Z,61.60
2023-02-06T09:14:37.512Z,61.50
2023-02-06T09:17:04.027Z,61.50
2023-02-06T09:19:30.512Z,61.40
2023-02-06T09:21:56.996Z,61.50
2023-02-06T09:24:23.475Z,61.60
2023-02-06T09:26:59.395Z,61.30
2023-02-06T09:29:26.486Z,61.60
2023-02-06T09:31:52.944Z,61.60
2023-02-06T09:34:19.437Z,61.70
2023-02-06T09:36:45.928Z,61.60
2023-02-06T09:39:12.408Z,61.60
2023-02-06T09:41:38.887Z,61.70
2023-02-06T09:44:05.409Z,61.50
2023-02-06T09:46:31.922Z,61.60
2023-02-06T09:48:58.442Z,61.60
2023-02-06T09:51:24.901Z,61.60
2023-02-06T09:53:51.383Z,61.80
2023-02-06T09:56:17.869Z,61.80
2023-02-06T09:58:44.360Z,61.90
2023-02-06T10:01:10.851Z,61.80
2023-02-06T10:03:37.325Z,61.80
2023-02-06T10:06:03.812Z,62.00
2023-02-06T10:08:30.280Z,61.80
2023-02-06T10:10:56.762Z,61.80
2023-02-06T10:13:23.249Z,62.00
2023-02-06T10:15:49.741Z,62.00
2023-02-06T10:18:16.234Z,61.80
2023-02-06T10:20:42.685Z,61.90
2023-02-06T10:23:09.172Z,62.00
2023-02-06T10:25:35.942Z,61.90
2023-02-06T10:28:02.721Z,62.00
2023-02-06T10:30:29.233Z,62.10
2023-02-06T10:32:55.733Z,62.20
2023-02-06T10:35:22.240Z,62.00
2023-02-06T10:37:48.746Z,62.10
2023-02-06T10:40:15.249Z,62.00
2023-02-06T10:42:41.722Z,62.30
2023-02-06T10:45:19.310Z,62.30
2023-02-06T10:47:46.790Z,62.30
2023-02-06T10:50:13.284Z,62.30
2023-02-06T10:52:39.766Z,62.30
2023-02-06T10:55:06.242Z,62.50
2023-02-06T10:57:32.751Z,62.50
2023-02-06T10:59:59.245Z,62.40
2023-02-06T11:02:25.799Z,62.50
2023-02-06T11:04:52.304Z,62.40
2023-02-06T11:07:18.774Z,62.60
2023-02-06T11:09:45.289Z,62.70
2023-02-06T11:12:11.750Z,62.60
2023-02-06T11:14:38.249Z,62.70
2023-02-06T11:17:04.730Z,62.80
2023-02-06T11:19:31.255Z,62.80
2023-02-06T11:21:57.753Z,62.90
2023-02-06T11:24:24.283Z,62.90
2023-02-06T11:26:50.773Z,62.90
2023-02-06T11:29:17.251Z,62.80
2023-02-06T11:31:46.616Z,62.90
2023-02-06T11:34:13.130Z,62.80
2023-02-06T11:36:39.615Z,62.90
2023-02-06T11:39:06.094Z,63.10
2023-02-06T11:41:32.565Z,63.10
2023-02-06T11:43:59.047Z,62.90
2023-02-06T11:46:25.544Z,63.00
2023-02-06T11:48:52.032Z,63.10
2023-02-06T11:51:18.523Z,63.20
2023-02-06T11:53:45.052Z,62.90
2023-02-06T11:56:11.540Z,63.10
2023-02-06T11:58:38.022Z,63.10
2023-02-06T12:01:04.517Z,63.10
2023-02-06T12:03:31.045Z,63.10
2023-02-06T12:05:59.286Z,63.10
2023-02-06T12:08:27.333Z,63.20
2023-02-06T12:10:53.819Z,63.20
2023-02-06T12:13:20.329Z,63.30
2023-02-06T12:15:48.192Z,63.20
2023-02-06T12:18:15.198Z,63.20
2023-02-06T12:20:41.685Z,63.20
2023-02-06T12:23:08.148Z,63.30
2023-02-06T12:25:34.933Z,63.30
2023-02-06T12:28:01.677Z,63.30
2023-02-06T12:30:28.257Z,63.20
2023-02-06T12:32:54.726Z,63.20
2023-02-06T12:35:21.207Z,63.30
2023-02-06T12:37:47.690Z,63.40
2023-02-06T12:40:14.168Z,63.40
2023-02-06T12:42:40.655Z,63.40
2023-02-06T12:45:07.160Z,63.30
2023-02-06T12:47:33.648Z,63.40
2023-02-06T12:50:00.159Z,63.40
2023-02-06T12:52:26.642Z,63.30
2023-02-06T12:54:53.202Z,63.40
2023-02-06T12:57:19.683Z,63.60
2023-02-06T12:59:57.174Z,63.40
2023-02-06T13:02:24.433Z,63.60
2023-02-06T13:04:50.967Z,63.50
2023-02-06T13:07:17.484Z,63.70
2023-02-06T13:09:43.967Z,63.60
2023-02-06T13:12:10.453Z,63.70
2023-02-06T13:14:38.277Z,63.70
2023-02-06T13:17:06.321Z,63.70
2023-02-06T13:19:32.790Z,63.70
2023-02-06T13:21:59.268Z,63.70
2023-02-06T13:24:25.719Z,63.80
2023-02-06T13:26:52.192Z,63.70
2023-02-06T13:29:18.668Z,63.50
2023-02-06T13:31:45.159Z,63.60
2023-02-06T13:34:11.656Z,64.00
2023-02-06T13:36:38.139Z,64.00
2023-02-06T13:39:04.634Z,63.90
2023-02-06T13:41:31.127Z,63.80
2023-02-06T13:43:57.617Z,64.00
2023-02-06T13:46:27.337Z,64.00
2023-02-06T13:48:53.831Z,63.80
2023-02-06T13:51:20.331Z,64.00
2023-02-06T13:53:46.805Z,64.10
2023-02-06T13:56:13.291Z,64.00
2023-02-06T13:58:39.776Z,64.10
2023-02-06T14:01:06.279Z,64.10
2023-02-06T14:03:32.749Z,64.00
2023-02-06T14:05:59.264Z,63.90
2023-02-06T14:08:25.734Z,64.10
2023-02-06T14:10:52.199Z,64.10
2023-02-06T14:13:18.663Z,64.00
2023-02-06T14:15:45.195Z,64.00
2023-02-06T14:18:11.681Z,64.10
2023-02-06T14:20:38.174Z,64.10
2023-02-06T14:23:04.619Z,64.00
2023-02-06T14:25:31.102Z,64.10
2023-02-06T14:27:57.593Z,64.00
2023-02-06T14:30:24.098Z,64.90
2023-02-06T14:32:50.570Z,64.00
2023-02-06T14:35:17.034Z,64.10
2023-02-06T14:37:43.507Z,64.10
2023-02-06T14:40:10.017Z,64.10
2023-02-06T14:42:36.569Z,64.10
2023-02-06T14:45:03.038Z,64.10
2023-02-06T14:47:29.524Z,64.20
2023-02-06T14:49:56.001Z,64.20
2023-02-06T14:52:22.462Z,64.20
2023-02-06T14:54:48.925Z,64.30
2023-02-06T14:57:15.419Z,64.20
2023-02-06T14:59:41.866Z,64.30
2023-02-06T15:02:08.344Z,64.30
2023-02-06T15:04:34.822Z,64.20
2023-02-06T15:07:01.285Z,64.30
2023-02-06T15:09:27.742Z,64.30
2023-02-06T15:11:54.204Z,64.30
2023-02-06T15:14:20.669Z,64.30
2023-02-06T15:16:47.132Z,64.20
2023-02-06T15:19:13.603Z,64.30
2023-02-06T15:21:40.088Z,64.40
2023-02-06T15:24:06.552Z,64.40
2023-02-06T15:26:32.991Z,64.40
2023-02-06T15:28:59.482Z,65.10
2023-02-06T15:31:26.018Z,64.50
2023-02-06T15:33:52.492Z,64.30
2023-02-06T15:36:19.096Z,64.30
2023-02-06T15:38:45.578Z,64.40
2023-02-06T15:41:12.079Z,64.40
2023-02-06T15:43:38.545Z,64.50
2023-02-06T15:46:05.124Z,64.40
2023-02-06T15:48:31.658Z,64.50
2023-02-06T15:50:58.122Z,64.50
2023-02-06T15:53:24.600Z,64.40
2023-02-06T15:55:51.080Z,64.60
2023-02-06T15:58:17.567Z,64.50
2023-02-06T16:00:44.043Z,64.50
2023-02-06T16:03:10.532Z,64.50
2023-02-06T16:05:37.002Z,64.40
2023-02-06T16:08:03.485Z,64.30
2023-02-06T16:10:29.936Z,64.30
2023-02-06T16:12:56.394Z,64.50
2023-02-06T16:15:22.875Z,64.30
2023-02-06T16:17:49.357Z,64.30
2023-02-06T16:20:15.810Z,64.50
2023-02-06T16:22:42.297Z,64.50
2023-02-06T16:25:08.783Z,64.50
2023-02-06T16:27:35.258Z,64.60
2023-02-06T16:30:01.795Z,64.50
2023-02-06T16:32:28.334Z,64.40
2023-02-06T16:34:54.778Z,64.40
2023-02-06T16:37:21.220Z,64.40
2023-02-06T16:39:47.700Z,64.50
2023-02-06T16:42:14.189Z,64.50
2023-02-06T16:44:45.278Z,64.50
2023-02-06T16:47:12.318Z,64.50
2023-02-06T16:49:38.809Z,64.40
2023-02-06T16:52:05.282Z,64.50
2023-02-06T16:54:31.756Z,64.40
2023-02-06T16:56:58.215Z,64.60
2023-02-06T16:59:24.708Z,64.40
2023-02-06T17:01:51.194Z,64.40
2023-02-06T17:04:17.654Z,64.40
2023-02-06T17:06:44.133Z,64.30
2023-02-06T17:09:10.638Z,64.30
2023-02-06T17:11:37.111Z,64.40
2023-02-06T17:14:03.571Z,64.50
2023-02-06T17:16:30.024Z,64.50
2023-02-06T17:18:56.516Z,64.50
2023-02-06T17:21:22.988Z,64.50
2023-02-06T17:23:49.466Z,64.50
2023-02-06T17:26:15.941Z,64.30
2023-02-06T17:28:42.441Z,64.50
2023-02-06T17:31:09.055Z,64.40
2023-02-06T17:33:35.572Z,64.50
2023-02-06T17:36:02.078Z,64.30
2023-02-06T17:38:28.568Z,64.30
2023-02-06T17:40:55.049Z,64.40
2023-02-06T17:43:21.527Z,64.50
2023-02-06T17:45:47.997Z,64.40
2023-02-06T17:48:14.479Z,64.30
2023-02-06T17:50:40.958Z,64.30
2023-02-06T17:53:07.435Z,64.30
2023-02-06T17:55:33.929Z,64.30
2023-02-06T17:58:00.399Z,64.30
2023-02-06T18:00:26.882Z,64.20
2023-02-06T18:02:53.374Z,64.30
2023-02-06T18:05:19.872Z,64.20
2023-02-06T18:07:46.333Z,64.30
2023-02-06T18:10:12.804Z,64.20
2023-02-06T18:12:39.275Z,64.30
2023-02-06T18:15:05.764Z,64.30
2023-02-06T18:17:32.244Z,64.20
2023-02-06T18:19:58.707Z,64.40
2023-02-06T18:22:25.177Z,64.30
2023-02-06T18:24:51.636Z,64.30
2023-02-06T18:27:18.125Z,65.10
2023-02-06T18:29:49.847Z,64.30
2023-02-06T18:32:16.772Z,64.30
2023-02-06T18:34:43.249Z,64.20
2023-02-06T18:37:09.723Z,64.10
2023-02-06T18:39:36.198Z,64.20
2023-02-06T18:42:02.674Z,64.20
2023-02-06T18:44:29.175Z,64.00
2023-02-06T18:46:55.648Z,64.10
2023-02-06T18:49:22.141Z,64.10
2023-02-06T18:51:48.615Z,64.10
2023-02-06T18:54:15.115Z,64.00
2023-02-06T18:56:41.577Z,64.10
2023-02-06T18:59:08.078Z,64.00
2023-02-06T19:01:34.578Z,64.10
2023-02-06T19:04:01.069Z,64.00
2023-02-06T19:06:27.544Z,64.20
2023-02-06T19:08:54.042Z,64.20
2023-02-06T19:11:20.533Z,64.10
2023-02-06T19:13:46.994Z,64.20
2023-02-06T19:16:13.478Z,64.10
2023-02-06T19:18:41.976Z,64.10
2023-02-06T19:21:08.678Z,64.10
2023-02-06T19:23:35.161Z,64.10
2023-02-06T19:26:01.637Z,63.80
2023-02-06T19:28:28.109Z,63.70
2023-02-06T19:30:54.612Z,63.70
2023-02-06T19:33:21.132Z,64.00
2023-02-06T19:35:47.616Z,64.00
2023-02-06T19:38:14.073Z,63.90
2023-02-06T19:40:40.609Z,63.80
2023-02-06T19:43:07.095Z,63.80
2023-02-06T19:45:33.626Z,63.60
2023-02-06T19:48:00.122Z,63.70
2023-02-06T19:50:26.633Z,63.70
2023-02-06T19:52:53.335Z,63.60
2023-02-06T19:55:19.828Z,63.60
2023-02-06T19:57:46.301Z,63.70
2023-02-06T20:00:12.776Z,63.70
2023-02-06T20:02:39.245Z,63.80
2023-02-06T20:05:05.718Z,63.70
2023-02-06T20:07:32.242Z,63.70
2023-02-06T20:09:58.731Z,63.70
2023-02-06T20:12:27.910Z,63.70
2023-02-06T20:14:54.484Z,63.60
2023-02-06T20:17:21.593Z,63.60
2023-02-06T20:19:48.082Z,63.40
2023-02-06T20:22:14.562Z,63.40
2023-02-06T20:24:41.043Z,63.60
2023-02-06T20:27:07.695Z,63.40
2023-02-06T20:29:34.221Z,63.40
2023-02-06T20:32:00.898Z,63.40
2023-02-06T20:34:27.522Z,63.40
2023-02-06T20:36:54.004Z,63.40
2023-02-06T20:39:20.488Z,63.40
2023-02-06T20:41:46.972Z,63.40
2023-02-06T20:44:13.482Z,63.30
2023-02-06T20:46:39.952Z,63.30
2023-02-06T20:49:06.426Z,63.20
2023-02-06T20:51:32.914Z,63.20
2023-02-06T20:54:03.667Z,63.30
2023-02-06T20:56:30.587Z,63.00
2023-02-06T20:58:57.087Z,63.20
2023-02-06T21:01:23.597Z,63.20
2023-02-06T21:03:50.077Z,63.20
2023-02-06T21:06:16.693Z,63.30
2023-02-06T21:08:43.202Z,63.30
2023-02-06T21:11:09.699Z,63.20
2023-02-06T21:13:36.187Z,63.10
2023-02-06T21:16:02.730Z,63.10
2023-02-06T21:18:29.293Z,63.10
2023-02-06T21:20:55.788Z,63.00
2023-02-06T21:23:22.250Z,63.10
2023-02-06T21:25:48.747Z,63.00
2023-02-06T21:28:15.229Z,63.10
2023-02-06T21:30:41.954Z,63.20
2023-02-06T21:33:08.497Z,63.00
2023-02-06T21:35:35.007Z,63.10
2023-02-06T21:38:01.480Z,63.00
2023-02-06T21:40:27.993Z,63.00
2023-02-06T21:42:54.477Z,62.90
2023-02-06T21:45:20.944Z,62.90
2023-02-06T21:47:47.412Z,62.80
2023-02-06T21:50:13.886Z,62.80
2023-02-06T21:52:40.379Z,62.80
2023-02-06T21:55:07.724Z,63.60
2023-02-06T21:57:34.242Z,62.80
2023-02-06T22:00:00.701Z,62.70
2023-02-06T22:02:27.175Z,62.80
2023-02-06T22:04:53.640Z,62.80
2023-02-06T22:07:20.127Z,62.70
2023-02-06T22:09:46.588Z,62.60
2023-02-06T22:12:13.077Z,62.70
2023-02-06T22:14:39.552Z,62.60
2023-02-06T22:17:06.095Z,62.60
2023-02-06T22:19:32.588Z,62.50
2023-02-06T22:21:59.427Z,62.50
2023-02-06T22:24:25.903Z,62.60
2023-02-06T22:26:52.376Z,62.60
2023-02-06T22:29:18.850Z,62.40
2023-02-06T22:31:45.357Z,62.40
2023-02-06T22:34:11.908Z,62.30
2023-02-06T22:36:38.379Z,62.30
2023-02-06T22:39:04.851Z,62.30
2023-02-06T22:41:31.332Z,62.30
2023-02-06T22:43:57.805Z,62.30
2023-02-06T22:46:24.296Z,62.20
2023-02-06T22:48:50.785Z,62.20
2023-02-06T22:51:17.257Z,62.30
2023-02-06T22:53:43.728Z,62.30
2023-02-06T22:56:10.234Z,62.00
2023-02-06T22:58:36.693Z,62.10
2023-02-06T23:01:03.271Z,62.00
2023-02-06T23:03:29.769Z,62.10
2023-02-06T23:05:56.266Z,62.00
2023-02-06T23:08:22.744Z,61.90
2023-02-06T23:10:49.303Z,62.00
2023-02-06T23:13:15.803Z,62.00
2023-02-06T23:15:42.659Z,62.00
2023-02-06T23:18:09.296Z,62.00
2023-02-06T23:20:35.790Z,61.90
2023-02-06T23:23:02.274Z,61.80
2023-02-06T23:25:28.748Z,61.70
2023-02-06T23:27:55.241Z,61.70
2023-02-06T23:30:21.746Z,61.70
2023-02-06T23:32:48.225Z,61.60
2023-02-06T23:35:14.685Z,61.80
2023-02-06T23:37:41.163Z,61.80
2023-02-06T23:40:07.626Z,61.60
2023-02-06T23:42:34.093Z,61.60
2023-02-06T23:45:00.561Z,61.70
2023-02-06T23:47:27.066Z,61.60
2023-02-06T23:49:53.546Z,61.70
2023-02-06T23:52:20.018Z,61.50
2023-02-06T23:54:46.501Z,61.60
2023-02-06T23:57:12.979Z,61.30
2023-02-06T23:59:39.465Z,61.20
